sensor_id;sensor_type;location;lat;lon;timestamp;P1;durP1;ratioP1;P2;durP2;ratioP2
37273;SDS011;23161;51.250;5.554;2024-02-28T00:00:31;116.50;;;71.22;;
37273;SDS011;23161;51.250;5.554;2024-02-28T00:02:02;114.35;;;70.82;;
37273;SDS011;23161;51.250;5.554;2024-02-28T00:03:33;134.25;;;71.93;;
37273;SDS011;23161;51.250;5.554;2024-02-28T00:05:03;122.82;;;78.18;;
37273;SDS011;23161;51.250;5.554;2024-02-28T00:06:34;113.85;;;75.80;;
37273;SDS011;23161;51.250;5.554;2024-02-28T00:08:05;131.77;;;74.25;;
37273;SDS011;23161;51.250;5.554;2024-02-28T00:09:36;104.15;;;67.00;;
37273;SDS011;23161;51.250;5.554;2024-02-28T00:11:07;121.43;;;77.75;;
37273;SDS011;23161;51.250;5.554;2024-02-28T00:12:38;120.90;;;79.13;;
37273;SDS011;23161;51.250;5.554;2024-02-28T00:14:09;127.30;;;75.13;;
37273;SDS011;23161;51.250;5.554;2024-02-28T00:15:40;115.00;;;74.53;;
37273;SDS011;23161;51.250;5.554;2024-02-28T00:17:12;132.73;;;78.22;;
37273;SDS011;23161;51.250;5.554;2024-02-28T00:18:43;133.73;;;81.80;;
37273;SDS011;23161;51.250;5.554;2024-02-28T00:20:14;148.38;;;83.07;;
37273;SDS011;23161;51.250;5.554;2024-02-28T00:21:45;144.77;;;81.60;;
37273;SDS011;23161;51.250;5.554;2024-02-28T00:23:16;141.23;;;84.20;;
37273;SDS011;23161;51.250;5.554;2024-02-28T00:24:47;127.10;;;82.88;;
37273;SDS011;23161;51.250;5.554;2024-02-28T00:26:18;144.93;;;86.57;;
37273;SDS011;23161;51.250;5.554;2024-02-28T00:27:49;152.85;;;79.90;;
37273;SDS011;23161;51.250;5.554;2024-02-28T00:29:20;138.45;;;85.20;;
37273;SDS011;23161;51.250;5.554;2024-02-28T00:30:50;152.43;;;84.05;;
37273;SDS011;23161;51.250;5.554;2024-02-28T00:32:21;158.50;;;87.95;;
37273;SDS011;23161;51.250;5.554;2024-02-28T00:33:52;143.18;;;87.75;;
37273;SDS011;23161;51.250;5.554;2024-02-28T00:35:23;143.88;;;86.35;;
37273;SDS011;23161;51.250;5.554;2024-02-28T00:36:53;154.68;;;84.88;;
37273;SDS011;23161;51.250;5.554;2024-02-28T00:38:24;136.32;;;79.63;;
37273;SDS011;23161;51.250;5.554;2024-02-28T00:39:55;158.43;;;83.70;;
37273;SDS011;23161;51.250;5.554;2024-02-28T00:41:26;143.82;;;83.32;;
37273;SDS011;23161;51.250;5.554;2024-02-28T00:42:57;146.48;;;83.97;;
37273;SDS011;23161;51.250;5.554;2024-02-28T00:44:31;139.98;;;86.90;;
37273;SDS011;23161;51.250;5.554;2024-02-28T00:46:01;136.77;;;83.65;;
37273;SDS011;23161;51.250;5.554;2024-02-28T00:47:36;142.02;;;84.03;;
37273;SDS011;23161;51.250;5.554;2024-02-28T00:49:08;154.80;;;83.38;;
37273;SDS011;23161;51.250;5.554;2024-02-28T00:50:38;125.95;;;85.55;;
37273;SDS011;23161;51.250;5.554;2024-02-28T00:52:09;145.32;;;85.47;;
37273;SDS011;23161;51.250;5.554;2024-02-28T00:53:40;125.90;;;79.40;;
37273;SDS011;23161;51.250;5.554;2024-02-28T00:55:13;128.07;;;75.57;;
37273;SDS011;23161;51.250;5.554;2024-02-28T00:56:44;131.77;;;77.78;;
37273;SDS011;23161;51.250;5.554;2024-02-28T00:58:15;125.93;;;80.78;;
37273;SDS011;23161;51.250;5.554;2024-02-28T00:59:45;137.38;;;76.50;;
37273;SDS011;23161;51.250;5.554;2024-02-28T01:01:17;115.05;;;74.47;;
37273;SDS011;23161;51.250;5.554;2024-02-28T01:02:48;150.40;;;86.03;;
37273;SDS011;23161;51.250;5.554;2024-02-28T01:04:18;144.77;;;87.20;;
37273;SDS011;23161;51.250;5.554;2024-02-28T01:05:49;137.38;;;79.78;;
37273;SDS011;23161;51.250;5.554;2024-02-28T01:07:21;124.72;;;76.45;;
37273;SDS011;23161;51.250;5.554;2024-02-28T01:08:51;136.70;;;80.95;;
37273;SDS011;23161;51.250;5.554;2024-02-28T01:10:22;144.98;;;81.55;;
37273;SDS011;23161;51.250;5.554;2024-02-28T01:11:53;136.73;;;75.57;;
37273;SDS011;23161;51.250;5.554;2024-02-28T01:13:24;145.60;;;76.22;;
37273;SDS011;23161;51.250;5.554;2024-02-28T01:14:55;125.22;;;70.50;;
37273;SDS011;23161;51.250;5.554;2024-02-28T01:16:26;117.88;;;72.03;;
37273;SDS011;23161;51.250;5.554;2024-02-28T01:17:58;113.13;;;70.07;;
37273;SDS011;23161;51.250;5.554;2024-02-28T01:19:28;115.68;;;70.70;;
37273;SDS011;23161;51.250;5.554;2024-02-28T01:20:59;120.20;;;68.25;;
37273;SDS011;23161;51.250;5.554;2024-02-28T01:22:30;126.00;;;72.03;;
37273;SDS011;23161;51.250;5.554;2024-02-28T01:24:01;133.95;;;78.18;;
37273;SDS011;23161;51.250;5.554;2024-02-28T01:25:31;118.55;;;76.38;;
37273;SDS011;23161;51.250;5.554;2024-02-28T01:27:02;127.22;;;73.97;;
37273;SDS011;23161;51.250;5.554;2024-02-28T01:28:33;111.35;;;67.80;;
37273;SDS011;23161;51.250;5.554;2024-02-28T01:30:04;125.65;;;74.68;;
37273;SDS011;23161;51.250;5.554;2024-02-28T01:31:36;123.05;;;71.30;;
37273;SDS011;23161;51.250;5.554;2024-02-28T01:33:06;121.45;;;75.88;;
37273;SDS011;23161;51.250;5.554;2024-02-28T01:34:37;118.45;;;73.55;;
37273;SDS011;23161;51.250;5.554;2024-02-28T01:36:08;120.15;;;72.10;;
37273;SDS011;23161;51.250;5.554;2024-02-28T01:37:39;124.82;;;75.07;;
37273;SDS011;23161;51.250;5.554;2024-02-28T01:39:10;111.68;;;73.82;;
37273;SDS011;23161;51.250;5.554;2024-02-28T01:40:45;116.70;;;69.72;;
37273;SDS011;23161;51.250;5.554;2024-02-28T01:42:16;121.30;;;69.18;;
37273;SDS011;23161;51.250;5.554;2024-02-28T01:43:48;110.13;;;65.25;;
37273;SDS011;23161;51.250;5.554;2024-02-28T01:45:19;126.65;;;73.78;;
37273;SDS011;23161;51.250;5.554;2024-02-28T01:46:49;110.22;;;67.75;;
37273;SDS011;23161;51.250;5.554;2024-02-28T01:48:21;164.15;;;74.72;;
37273;SDS011;23161;51.250;5.554;2024-02-28T01:49:52;127.90;;;71.93;;
37273;SDS011;23161;51.250;5.554;2024-02-28T01:51:24;112.13;;;68.57;;
37273;SDS011;23161;51.250;5.554;2024-02-28T01:52:59;117.88;;;72.10;;
37273;SDS011;23161;51.250;5.554;2024-02-28T01:54:31;254.25;;;80.53;;
37273;SDS011;23161;51.250;5.554;2024-02-28T01:56:03;136.38;;;64.13;;
37273;SDS011;23161;51.250;5.554;2024-02-28T01:57:34;124.00;;;61.78;;
37273;SDS011;23161;51.250;5.554;2024-02-28T01:59:07;98.55;;;61.10;;
37273;SDS011;23161;51.250;5.554;2024-02-28T02:00:40;150.85;;;72.30;;
37273;SDS011;23161;51.250;5.554;2024-02-28T02:02:12;112.38;;;63.38;;
37273;SDS011;23161;51.250;5.554;2024-02-28T02:03:43;127.75;;;71.97;;
37273;SDS011;23161;51.250;5.554;2024-02-28T02:05:14;108.13;;;65.28;;
37273;SDS011;23161;51.250;5.554;2024-02-28T02:06:46;106.38;;;65.13;;
37273;SDS011;23161;51.250;5.554;2024-02-28T02:08:19;99.45;;;65.00;;
37273;SDS011;23161;51.250;5.554;2024-02-28T02:09:51;122.57;;;67.43;;
37273;SDS011;23161;51.250;5.554;2024-02-28T02:11:22;112.18;;;66.75;;
37273;SDS011;23161;51.250;5.554;2024-02-28T02:12:54;96.38;;;64.03;;
37273;SDS011;23161;51.250;5.554;2024-02-28T02:14:24;119.75;;;68.63;;
37273;SDS011;23161;51.250;5.554;2024-02-28T02:15:55;143.20;;;71.60;;
37273;SDS011;23161;51.250;5.554;2024-02-28T02:17:26;101.80;;;66.25;;
37273;SDS011;23161;51.250;5.554;2024-02-28T02:18:57;202.93;;;74.20;;
37273;SDS011;23161;51.250;5.554;2024-02-28T02:20:29;101.47;;;68.93;;
37273;SDS011;23161;51.250;5.554;2024-02-28T02:22:03;138.48;;;71.35;;
37273;SDS011;23161;51.250;5.554;2024-02-28T02:23:38;123.45;;;70.65;;
37273;SDS011;23161;51.250;5.554;2024-02-28T02:25:11;164.45;;;73.00;;
37273;SDS011;23161;51.250;5.554;2024-02-28T02:26:43;199.48;;;80.43;;
37273;SDS011;23161;51.250;5.554;2024-02-28T02:28:16;171.05;;;74.75;;
37273;SDS011;23161;51.250;5.554;2024-02-28T02:29:47;199.30;;;82.03;;
37273;SDS011;23161;51.250;5.554;2024-02-28T02:31:18;221.75;;;80.20;;
37273;SDS011;23161;51.250;5.554;2024-02-28T02:32:48;183.93;;;80.57;;
37273;SDS011;23161;51.250;5.554;2024-02-28T02:34:19;192.35;;;73.88;;
37273;SDS011;23161;51.250;5.554;2024-02-28T02:35:51;121.72;;;69.53;;
37273;SDS011;23161;51.250;5.554;2024-02-28T02:37:23;151.23;;;69.95;;
37273;SDS011;23161;51.250;5.554;2024-02-28T02:38:54;95.13;;;63.83;;
37273;SDS011;23161;51.250;5.554;2024-02-28T02:40:25;163.13;;;70.05;;
37273;SDS011;23161;51.250;5.554;2024-02-28T02:41:55;173.73;;;74.47;;
37273;SDS011;23161;51.250;5.554;2024-02-28T02:43:26;124.43;;;72.32;;
37273;SDS011;23161;51.250;5.554;2024-02-28T02:44:57;150.95;;;70.80;;
37273;SDS011;23161;51.250;5.554;2024-02-28T02:46:28;172.52;;;71.70;;
37273;SDS011;23161;51.250;5.554;2024-02-28T02:47:58;123.35;;;63.75;;
37273;SDS011;23161;51.250;5.554;2024-02-28T02:49:29;136.65;;;63.28;;
37273;SDS011;23161;51.250;5.554;2024-02-28T02:51:00;100.60;;;62.47;;
37273;SDS011;23161;51.250;5.554;2024-02-28T02:52:31;183.43;;;72.60;;
37273;SDS011;23161;51.250;5.554;2024-02-28T02:54:02;166.57;;;72.68;;
37273;SDS011;23161;51.250;5.554;2024-02-28T02:55:33;155.90;;;69.50;;
37273;SDS011;23161;51.250;5.554;2024-02-28T02:57:03;97.28;;;60.72;;
37273;SDS011;23161;51.250;5.554;2024-02-28T02:58:34;105.35;;;62.15;;
37273;SDS011;23161;51.250;5.554;2024-02-28T03:00:07;131.23;;;67.05;;
37273;SDS011;23161;51.250;5.554;2024-02-28T03:01:39;166.68;;;71.28;;
37273;SDS011;23161;51.250;5.554;2024-02-28T03:03:10;109.72;;;63.65;;
37273;SDS011;23161;51.250;5.554;2024-02-28T03:04:41;126.65;;;65.18;;
37273;SDS011;23161;51.250;5.554;2024-02-28T03:06:12;118.97;;;63.88;;
37273;SDS011;23161;51.250;5.554;2024-02-28T03:07:43;101.53;;;61.58;;
37273;SDS011;23161;51.250;5.554;2024-02-28T03:09:13;115.03;;;62.55;;
37273;SDS011;23161;51.250;5.554;2024-02-28T03:10:44;108.15;;;61.45;;
37273;SDS011;23161;51.250;5.554;2024-02-28T03:12:15;91.70;;;61.63;;
37273;SDS011;23161;51.250;5.554;2024-02-28T03:13:46;81.82;;;57.42;;
37273;SDS011;23161;51.250;5.554;2024-02-28T03:15:17;111.65;;;65.72;;
37273;SDS011;23161;51.250;5.554;2024-02-28T03:16:47;85.88;;;58.28;;
37273;SDS011;23161;51.250;5.554;2024-02-28T03:18:19;83.85;;;59.47;;
37273;SDS011;23161;51.250;5.554;2024-02-28T03:19:50;82.65;;;61.15;;
37273;SDS011;23161;51.250;5.554;2024-02-28T03:21:20;88.38;;;58.70;;
37273;SDS011;23161;51.250;5.554;2024-02-28T03:22:51;83.20;;;58.40;;
37273;SDS011;23161;51.250;5.554;2024-02-28T03:24:22;92.10;;;62.28;;
37273;SDS011;23161;51.250;5.554;2024-02-28T03:25:56;88.47;;;61.53;;
37273;SDS011;23161;51.250;5.554;2024-02-28T03:27:27;85.82;;;58.38;;
37273;SDS011;23161;51.250;5.554;2024-02-28T03:28:57;81.60;;;56.28;;
37273;SDS011;23161;51.250;5.554;2024-02-28T03:30:29;69.43;;;56.63;;
37273;SDS011;23161;51.250;5.554;2024-02-28T03:31:59;80.63;;;56.00;;
37273;SDS011;23161;51.250;5.554;2024-02-28T03:33:30;102.72;;;59.92;;
37273;SDS011;23161;51.250;5.554;2024-02-28T03:35:03;82.15;;;56.70;;
37273;SDS011;23161;51.250;5.554;2024-02-28T03:36:35;82.63;;;56.80;;
37273;SDS011;23161;51.250;5.554;2024-02-28T03:38:06;68.93;;;53.67;;
37273;SDS011;23161;51.250;5.554;2024-02-28T03:39:37;70.00;;;57.15;;
37273;SDS011;23161;51.250;5.554;2024-02-28T03:41:08;72.13;;;54.33;;
37273;SDS011;23161;51.250;5.554;2024-02-28T03:42:40;73.72;;;53.17;;
37273;SDS011;23161;51.250;5.554;2024-02-28T03:44:11;76.55;;;57.35;;
37273;SDS011;23161;51.250;5.554;2024-02-28T03:45:41;67.30;;;50.95;;
37273;SDS011;23161;51.250;5.554;2024-02-28T03:47:12;63.65;;;53.28;;
37273;SDS011;23161;51.250;5.554;2024-02-28T03:48:43;81.32;;;55.60;;
37273;SDS011;23161;51.250;5.554;2024-02-28T03:50:14;70.60;;;52.20;;
37273;SDS011;23161;51.250;5.554;2024-02-28T03:51:45;76.93;;;56.38;;
37273;SDS011;23161;51.250;5.554;2024-02-28T03:53:16;82.95;;;56.03;;
37273;SDS011;23161;51.250;5.554;2024-02-28T03:54:47;65.72;;;53.08;;
37273;SDS011;23161;51.250;5.554;2024-02-28T03:56:24;76.32;;;53.35;;
37273;SDS011;23161;51.250;5.554;2024-02-28T03:57:55;68.50;;;53.53;;
37273;SDS011;23161;51.250;5.554;2024-02-28T03:59:26;77.20;;;56.38;;
37273;SDS011;23161;51.250;5.554;2024-02-28T04:00:57;75.65;;;57.40;;
37273;SDS011;23161;51.250;5.554;2024-02-28T04:02:27;78.15;;;55.50;;
37273;SDS011;23161;51.250;5.554;2024-02-28T04:03:58;74.68;;;57.28;;
37273;SDS011;23161;51.250;5.554;2024-02-28T04:05:29;70.72;;;52.65;;
37273;SDS011;23161;51.250;5.554;2024-02-28T04:07:00;85.55;;;55.67;;
37273;SDS011;23161;51.250;5.554;2024-02-28T04:08:30;72.32;;;54.75;;
37273;SDS011;23161;51.250;5.554;2024-02-28T04:10:01;72.40;;;56.03;;
37273;SDS011;23161;51.250;5.554;2024-02-28T04:11:36;96.40;;;60.50;;
37273;SDS011;23161;51.250;5.554;2024-02-28T04:13:08;97.35;;;59.13;;
37273;SDS011;23161;51.250;5.554;2024-02-28T04:14:39;84.93;;;60.97;;
37273;SDS011;23161;51.250;5.554;2024-02-28T04:16:10;77.40;;;60.63;;
37273;SDS011;23161;51.250;5.554;2024-02-28T04:17:41;85.55;;;58.72;;
37273;SDS011;23161;51.250;5.554;2024-02-28T04:19:12;90.43;;;60.15;;
37273;SDS011;23161;51.250;5.554;2024-02-28T04:20:43;91.15;;;65.05;;
37273;SDS011;23161;51.250;5.554;2024-02-28T04:22:14;99.40;;;63.38;;
37273;SDS011;23161;51.250;5.554;2024-02-28T04:23:45;92.00;;;60.47;;
37273;SDS011;23161;51.250;5.554;2024-02-28T04:25:16;99.93;;;61.47;;
37273;SDS011;23161;51.250;5.554;2024-02-28T04:26:46;85.70;;;63.70;;
37273;SDS011;23161;51.250;5.554;2024-02-28T04:28:18;101.55;;;60.55;;
37273;SDS011;23161;51.250;5.554;2024-02-28T04:29:48;106.60;;;58.00;;
37273;SDS011;23161;51.250;5.554;2024-02-28T04:31:19;96.13;;;61.00;;
37273;SDS011;23161;51.250;5.554;2024-02-28T04:32:50;101.78;;;62.15;;
37273;SDS011;23161;51.250;5.554;2024-02-28T04:34:20;101.18;;;62.97;;
37273;SDS011;23161;51.250;5.554;2024-02-28T04:35:51;103.10;;;60.72;;
37273;SDS011;23161;51.250;5.554;2024-02-28T04:37:22;84.05;;;60.67;;
37273;SDS011;23161;51.250;5.554;2024-02-28T04:38:53;105.15;;;63.85;;
37273;SDS011;23161;51.250;5.554;2024-02-28T04:40:24;97.63;;;67.68;;
37273;SDS011;23161;51.250;5.554;2024-02-28T04:41:54;98.93;;;67.65;;
37273;SDS011;23161;51.250;5.554;2024-02-28T04:43:25;90.70;;;65.35;;
37273;SDS011;23161;51.250;5.554;2024-02-28T04:44:56;99.25;;;64.45;;
37273;SDS011;23161;51.250;5.554;2024-02-28T04:46:27;94.15;;;65.75;;
37273;SDS011;23161;51.250;5.554;2024-02-28T04:47:58;83.50;;;61.22;;
37273;SDS011;23161;51.250;5.554;2024-02-28T04:49:28;94.22;;;64.28;;
37273;SDS011;23161;51.250;5.554;2024-02-28T04:51:00;94.13;;;64.18;;
37273;SDS011;23161;51.250;5.554;2024-02-28T04:52:32;94.00;;;60.80;;
37273;SDS011;23161;51.250;5.554;2024-02-28T04:54:03;89.03;;;62.25;;
37273;SDS011;23161;51.250;5.554;2024-02-28T04:55:34;97.97;;;66.82;;
37273;SDS011;23161;51.250;5.554;2024-02-28T04:57:04;92.88;;;65.88;;
37273;SDS011;23161;51.250;5.554;2024-02-28T04:58:36;95.50;;;63.03;;
37273;SDS011;23161;51.250;5.554;2024-02-28T05:00:07;88.55;;;63.92;;
37273;SDS011;23161;51.250;5.554;2024-02-28T05:01:38;84.53;;;59.33;;
37273;SDS011;23161;51.250;5.554;2024-02-28T05:03:12;93.72;;;59.72;;
37273;SDS011;23161;51.250;5.554;2024-02-28T05:04:43;89.55;;;61.00;;
37273;SDS011;23161;51.250;5.554;2024-02-28T05:06:13;87.03;;;57.65;;
37273;SDS011;23161;51.250;5.554;2024-02-28T05:07:44;72.20;;;53.00;;
37273;SDS011;23161;51.250;5.554;2024-02-28T05:09:15;75.63;;;57.05;;
37273;SDS011;23161;51.250;5.554;2024-02-28T05:10:46;75.55;;;55.33;;
37273;SDS011;23161;51.250;5.554;2024-02-28T05:12:17;67.10;;;51.28;;
37273;SDS011;23161;51.250;5.554;2024-02-28T05:13:47;65.57;;;54.08;;
37273;SDS011;23161;51.250;5.554;2024-02-28T05:15:18;74.20;;;53.97;;
37273;SDS011;23161;51.250;5.554;2024-02-28T05:16:50;76.72;;;56.92;;
37273;SDS011;23161;51.250;5.554;2024-02-28T05:18:20;80.25;;;56.90;;
37273;SDS011;23161;51.250;5.554;2024-02-28T05:19:51;68.97;;;56.30;;
37273;SDS011;23161;51.250;5.554;2024-02-28T05:21:22;74.03;;;54.33;;
37273;SDS011;23161;51.250;5.554;2024-02-28T05:22:53;76.13;;;56.72;;
37273;SDS011;23161;51.250;5.554;2024-02-28T05:24:24;69.28;;;52.70;;
37273;SDS011;23161;51.250;5.554;2024-02-28T05:25:55;68.75;;;49.72;;
37273;SDS011;23161;51.250;5.554;2024-02-28T05:27:25;69.15;;;51.38;;
37273;SDS011;23161;51.250;5.554;2024-02-28T05:28:56;74.53;;;55.58;;
37273;SDS011;23161;51.250;5.554;2024-02-28T05:30:27;71.30;;;51.45;;
37273;SDS011;23161;51.250;5.554;2024-02-28T05:31:58;63.38;;;51.90;;
37273;SDS011;23161;51.250;5.554;2024-02-28T05:33:29;76.00;;;58.17;;
37273;SDS011;23161;51.250;5.554;2024-02-28T05:34:59;78.97;;;52.55;;
37273;SDS011;23161;51.250;5.554;2024-02-28T05:36:30;74.53;;;55.08;;
37273;SDS011;23161;51.250;5.554;2024-02-28T05:38:01;76.25;;;57.13;;
37273;SDS011;23161;51.250;5.554;2024-02-28T05:39:32;76.78;;;58.05;;
37273;SDS011;23161;51.250;5.554;2024-02-28T05:41:03;74.43;;;56.22;;
37273;SDS011;23161;51.250;5.554;2024-02-28T05:42:34;66.03;;;52.42;;
37273;SDS011;23161;51.250;5.554;2024-02-28T05:44:05;70.82;;;53.95;;
37273;SDS011;23161;51.250;5.554;2024-02-28T05:45:36;68.13;;;56.28;;
37273;SDS011;23161;51.250;5.554;2024-02-28T05:47:07;62.22;;;50.33;;
37273;SDS011;23161;51.250;5.554;2024-02-28T05:48:38;82.03;;;54.17;;
37273;SDS011;23161;51.250;5.554;2024-02-28T05:50:10;66.65;;;50.08;;
37273;SDS011;23161;51.250;5.554;2024-02-28T05:51:41;77.55;;;53.88;;
37273;SDS011;23161;51.250;5.554;2024-02-28T05:53:12;70.43;;;51.83;;
37273;SDS011;23161;51.250;5.554;2024-02-28T05:54:43;74.07;;;53.88;;
37273;SDS011;23161;51.250;5.554;2024-02-28T05:56:13;77.93;;;56.55;;
37273;SDS011;23161;51.250;5.554;2024-02-28T05:57:45;85.70;;;58.95;;
37273;SDS011;23161;51.250;5.554;2024-02-28T05:59:15;89.68;;;64.55;;
37273;SDS011;23161;51.250;5.554;2024-02-28T06:00:46;83.65;;;61.97;;
37273;SDS011;23161;51.250;5.554;2024-02-28T06:02:17;89.50;;;64.97;;
37273;SDS011;23161;51.250;5.554;2024-02-28T06:03:48;88.38;;;65.43;;
37273;SDS011;23161;51.250;5.554;2024-02-28T06:05:19;93.28;;;63.75;;
37273;SDS011;23161;51.250;5.554;2024-02-28T06:06:50;81.55;;;62.72;;
37273;SDS011;23161;51.250;5.554;2024-02-28T06:08:21;99.97;;;67.72;;
37273;SDS011;23161;51.250;5.554;2024-02-28T06:09:52;92.30;;;64.55;;
37273;SDS011;23161;51.250;5.554;2024-02-28T06:11:23;95.22;;;62.40;;
37273;SDS011;23161;51.250;5.554;2024-02-28T06:12:53;91.35;;;66.85;;
37273;SDS011;23161;51.250;5.554;2024-02-28T06:14:24;96.93;;;61.13;;
37273;SDS011;23161;51.250;5.554;2024-02-28T06:15:55;85.50;;;57.83;;
37273;SDS011;23161;51.250;5.554;2024-02-28T06:17:26;83.75;;;60.13;;
37273;SDS011;23161;51.250;5.554;2024-02-28T06:18:57;95.68;;;62.92;;
37273;SDS011;23161;51.250;5.554;2024-02-28T06:20:28;87.80;;;61.70;;
37273;SDS011;23161;51.250;5.554;2024-02-28T06:21:59;85.65;;;63.05;;
37273;SDS011;23161;51.250;5.554;2024-02-28T06:23:30;96.82;;;66.20;;
37273;SDS011;23161;51.250;5.554;2024-02-28T06:25:00;94.55;;;62.05;;
37273;SDS011;23161;51.250;5.554;2024-02-28T06:26:31;89.35;;;62.95;;
37273;SDS011;23161;51.250;5.554;2024-02-28T06:28:02;91.75;;;62.67;;
37273;SDS011;23161;51.250;5.554;2024-02-28T06:29:35;90.68;;;64.45;;
37273;SDS011;23161;51.250;5.554;2024-02-28T06:31:11;95.80;;;64.63;;
37273;SDS011;23161;51.250;5.554;2024-02-28T06:32:46;85.57;;;61.20;;
37273;SDS011;23161;51.250;5.554;2024-02-28T06:34:17;95.65;;;64.50;;
37273;SDS011;23161;51.250;5.554;2024-02-28T06:35:48;95.78;;;64.88;;
37273;SDS011;23161;51.250;5.554;2024-02-28T06:37:19;96.78;;;68.10;;
37273;SDS011;23161;51.250;5.554;2024-02-28T06:38:50;100.88;;;69.72;;
37273;SDS011;23161;51.250;5.554;2024-02-28T06:40:21;118.07;;;74.45;;
37273;SDS011;23161;51.250;5.554;2024-02-28T06:41:52;122.55;;;74.63;;
37273;SDS011;23161;51.250;5.554;2024-02-28T06:43:22;106.47;;;67.40;;
37273;SDS011;23161;51.250;5.554;2024-02-28T06:44:53;104.55;;;69.32;;
37273;SDS011;23161;51.250;5.554;2024-02-28T06:46:24;109.88;;;72.65;;
37273;SDS011;23161;51.250;5.554;2024-02-28T06:47:55;116.03;;;72.40;;
37273;SDS011;23161;51.250;5.554;2024-02-28T06:49:25;117.93;;;72.72;;
37273;SDS011;23161;51.250;5.554;2024-02-28T06:50:57;113.13;;;73.10;;
37273;SDS011;23161;51.250;5.554;2024-02-28T06:52:28;121.22;;;71.68;;
37273;SDS011;23161;51.250;5.554;2024-02-28T06:53:59;113.15;;;73.20;;
37273;SDS011;23161;51.250;5.554;2024-02-28T06:55:30;117.70;;;73.80;;
37273;SDS011;23161;51.250;5.554;2024-02-28T06:57:01;121.90;;;74.30;;
37273;SDS011;23161;51.250;5.554;2024-02-28T06:58:32;116.78;;;72.97;;
37273;SDS011;23161;51.250;5.554;2024-02-28T07:00:04;112.18;;;74.10;;
37273;SDS011;23161;51.250;5.554;2024-02-28T07:01:38;108.90;;;70.07;;
37273;SDS011;23161;51.250;5.554;2024-02-28T07:03:09;113.80;;;70.68;;
37273;SDS011;23161;51.250;5.554;2024-02-28T07:04:40;122.25;;;73.13;;
37273;SDS011;23161;51.250;5.554;2024-02-28T07:06:12;102.63;;;67.55;;
37273;SDS011;23161;51.250;5.554;2024-02-28T07:07:43;120.80;;;70.45;;
37273;SDS011;23161;51.250;5.554;2024-02-28T07:09:14;108.95;;;71.50;;
37273;SDS011;23161;51.250;5.554;2024-02-28T07:10:45;118.97;;;72.65;;
37273;SDS011;23161;51.250;5.554;2024-02-28T07:12:19;108.97;;;72.20;;
37273;SDS011;23161;51.250;5.554;2024-02-28T07:13:50;115.30;;;74.40;;
37273;SDS011;23161;51.250;5.554;2024-02-28T07:15:20;116.35;;;75.60;;
37273;SDS011;23161;51.250;5.554;2024-02-28T07:16:51;114.55;;;71.65;;
37273;SDS011;23161;51.250;5.554;2024-02-28T07:18:23;103.78;;;70.20;;
37273;SDS011;23161;51.250;5.554;2024-02-28T07:19:59;108.40;;;68.25;;
37273;SDS011;23161;51.250;5.554;2024-02-28T07:21:30;103.55;;;67.38;;
37273;SDS011;23161;51.250;5.554;2024-02-28T07:23:02;109.78;;;72.22;;
37273;SDS011;23161;51.250;5.554;2024-02-28T07:24:33;117.53;;;72.28;;
37273;SDS011;23161;51.250;5.554;2024-02-28T07:26:03;111.50;;;67.03;;
37273;SDS011;23161;51.250;5.554;2024-02-28T07:27:34;90.50;;;66.60;;
37273;SDS011;23161;51.250;5.554;2024-02-28T07:29:05;103.00;;;70.55;;
37273;SDS011;23161;51.250;5.554;2024-02-28T07:30:36;114.55;;;68.97;;
37273;SDS011;23161;51.250;5.554;2024-02-28T07:32:07;97.15;;;67.35;;
37273;SDS011;23161;51.250;5.554;2024-02-28T07:33:39;85.43;;;65.63;;
37273;SDS011;23161;51.250;5.554;2024-02-28T07:35:11;95.60;;;68.03;;
37273;SDS011;23161;51.250;5.554;2024-02-28T07:36:42;94.85;;;64.05;;
37273;SDS011;23161;51.250;5.554;2024-02-28T07:38:13;93.95;;;65.45;;
37273;SDS011;23161;51.250;5.554;2024-02-28T07:39:44;94.82;;;64.22;;
37273;SDS011;23161;51.250;5.554;2024-02-28T07:41:15;95.35;;;62.60;;
37273;SDS011;23161;51.250;5.554;2024-02-28T07:42:46;104.65;;;60.00;;
37273;SDS011;23161;51.250;5.554;2024-02-28T07:44:17;86.72;;;63.55;;
37273;SDS011;23161;51.250;5.554;2024-02-28T07:45:47;78.40;;;59.30;;
37273;SDS011;23161;51.250;5.554;2024-02-28T07:47:19;90.90;;;63.53;;
37273;SDS011;23161;51.250;5.554;2024-02-28T07:48:50;88.80;;;57.22;;
37273;SDS011;23161;51.250;5.554;2024-02-28T07:50:21;79.05;;;57.22;;
37273;SDS011;23161;51.250;5.554;2024-02-28T07:51:52;89.88;;;59.20;;
37273;SDS011;23161;51.250;5.554;2024-02-28T07:53:22;89.05;;;60.10;;
37273;SDS011;23161;51.250;5.554;2024-02-28T07:54:53;84.72;;;60.90;;
37273;SDS011;23161;51.250;5.554;2024-02-28T07:56:24;86.68;;;58.83;;
37273;SDS011;23161;51.250;5.554;2024-02-28T07:57:55;76.30;;;59.00;;
37273;SDS011;23161;51.250;5.554;2024-02-28T07:59:25;84.03;;;59.30;;
37273;SDS011;23161;51.250;5.554;2024-02-28T08:00:56;84.90;;;56.33;;
37273;SDS011;23161;51.250;5.554;2024-02-28T08:02:27;78.82;;;58.72;;
37273;SDS011;23161;51.250;5.554;2024-02-28T08:03:58;83.85;;;58.30;;
37273;SDS011;23161;51.250;5.554;2024-02-28T08:05:29;80.72;;;58.00;;
37273;SDS011;23161;51.250;5.554;2024-02-28T08:07:00;86.38;;;59.30;;
37273;SDS011;23161;51.250;5.554;2024-02-28T08:08:31;82.85;;;63.47;;
37273;SDS011;23161;51.250;5.554;2024-02-28T08:10:02;84.07;;;59.33;;
37273;SDS011;23161;51.250;5.554;2024-02-28T08:11:35;77.25;;;56.15;;
37273;SDS011;23161;51.250;5.554;2024-02-28T08:13:06;85.13;;;57.85;;
37273;SDS011;23161;51.250;5.554;2024-02-28T08:14:38;82.40;;;56.75;;
37273;SDS011;23161;51.250;5.554;2024-02-28T08:16:09;76.45;;;55.13;;
37273;SDS011;23161;51.250;5.554;2024-02-28T08:17:40;84.55;;;56.85;;
37273;SDS011;23161;51.250;5.554;2024-02-28T08:19:11;81.35;;;50.45;;
37273;SDS011;23161;51.250;5.554;2024-02-28T08:20:41;69.10;;;53.78;;
37273;SDS011;23161;51.250;5.554;2024-02-28T08:22:13;59.17;;;44.75;;
37273;SDS011;23161;51.250;5.554;2024-02-28T08:23:44;62.45;;;44.80;;
37273;SDS011;23161;51.250;5.554;2024-02-28T08:25:15;50.15;;;41.25;;
37273;SDS011;23161;51.250;5.554;2024-02-28T08:26:46;44.75;;;37.92;;
37273;SDS011;23161;51.250;5.554;2024-02-28T08:28:17;42.30;;;34.08;;
37273;SDS011;23161;51.250;5.554;2024-02-28T08:29:48;42.28;;;31.70;;
37273;SDS011;23161;51.250;5.554;2024-02-28T08:31:18;33.25;;;28.02;;
37273;SDS011;23161;51.250;5.554;2024-02-28T08:32:49;46.75;;;29.83;;
37273;SDS011;23161;51.250;5.554;2024-02-28T08:34:20;31.02;;;24.08;;
37273;SDS011;23161;51.250;5.554;2024-02-28T08:35:50;28.30;;;21.42;;
37273;SDS011;23161;51.250;5.554;2024-02-28T08:37:21;30.45;;;22.83;;
37273;SDS011;23161;51.250;5.554;2024-02-28T08:38:52;28.80;;;23.10;;
37273;SDS011;23161;51.250;5.554;2024-02-28T08:40:23;26.02;;;22.25;;
37273;SDS011;23161;51.250;5.554;2024-02-28T08:41:54;24.95;;;20.63;;
37273;SDS011;23161;51.250;5.554;2024-02-28T08:43:24;25.02;;;19.58;;
37273;SDS011;23161;51.250;5.554;2024-02-28T08:44:55;20.67;;;18.48;;
37273;SDS011;23161;51.250;5.554;2024-02-28T08:46:26;23.52;;;19.95;;
37273;SDS011;23161;51.250;5.554;2024-02-28T08:47:57;21.30;;;17.25;;
37273;SDS011;23161;51.250;5.554;2024-02-28T08:49:31;20.63;;;17.88;;